Coupland, Texas
Current Conditions -  °F | °C
As of 12:35 PM on Tuesday 27 Jan 2015 (Local Time) from KEDC Reporting Station
Clear Clear  
Wind Chill: 73°   Ceiling: Unl
Heat Index: 73°   Visibility: 10mi
Dew Point: 41°   Wind: 6mph
Humidity: 31%   Direction: 10°N
Pressure: 30.17"   Gusts: NA
Location:  30.46°N, 97.39°W
Report Text: KEDC 271835Z AUTO 01005KT 10SM CLR 23/05 A3017 RMK AO2
Loading
Personal Weather Stations






























Interactive Weather Map New forecast layout! Learn more

10-Day Weather Forecast

Advertisements
Track Severe Weather on mobile